Voss, Texas
Current Conditions -  °F | °C
As of 4:55 PM on Monday 24 Nov 2014 (Local Time) from KCOM Reporting Station
Clear Clear  
Wind Chill: 56°   Ceiling: Unl
Heat Index: 56°   Visibility: 10mi
Dew Point: 29°   Wind: 6mph
Humidity: 35%   Direction: 250°WSW
Pressure: 30.06"   Gusts: NA
Location:  31.62°N, 99.56°W
Report Text: KCOM 242255Z AUTO 25005KT 10SM CLR 14/M02 A3006 RMK AO2 T01351018
Loading
Personal Weather Stations






























Interactive Weather Map New forecast layout! Learn more

10-Day Weather Forecast

Advertisements
Track Severe Weather on mobile